San Ardo, CA (93450)

12:56 AM PST on March 03, 2015 (GMT -0800)
South of San Ardo | Change Station
CLOSE
Current Station
Personal Weather Station
Location: San Ardo, CA
Elevation: 600 ft
Nearby Weather Stations

Elev 600 ft 35.97 °N, 120.90 °W | Updated 4 seconds ago

Clear
Clear
41.5 °F
Feels Like 42 °F
N
0.0
Wind Variable Wind from SSE
Gusts 0.0 mph

Today
High -- | Low -- °F
--% Chance of Precip.
Yesterday
High -- | Low -- °F
Precip. -- in
6:31 AM 6:00 PM
Waxing Gibbous, 95% visible
Pressure 29.96 in
Visibility 10.0 miles
Clouds Clear
Windchill 42 °F
Dew Point 37 °F
Humidity 83%
Rainfall 0.00 in
Snow Depth Not available.
UV 0.0 out of 12
Pollen 7.40 out of 12
Air Quality Not available.
Flu Activity Not available.
METAR KPRB 030653Z AUTO 15004KT 10SM CLR 06/04 A2996 RMK AO2 SLP144 T00610044 TSNO $

More Conditions Fewer Conditions

Pressure 29.96 in
Visibility 10.0 miles
Clouds Clear
Windchill 42 °F
Dew Point 37 °F
Humidity 83%
Rainfall 0.00 in
Snow Depth Not available.
UV 0.0 out of 12
Pollen 7.40 out of 12
Air Quality Not available.
Flu Activity Not available.
METAR KPRB 030653Z AUTO 15004KT 10SM CLR 06/04 A2996 RMK AO2 SLP144 T00610044 TSNO $

More Conditions Fewer Conditions

10-Day Weather Forecast

Almanac

Astronomy

Mar. 03, 2015 Rise Set
Actual Time
Civil Twilight
Nautical Twilight
Astronomical Twilight
Moon
Length of Visible Light
Length of Day
Tomorrow will be .
, % of the Moon is Illuminated

Today's Extremes

State Highs State Lows

Community

WunderPhotos

Upload Photos

1,802,075 photos uploaded!

WunderBlogs® & News

Nearby

Air Quality

  Air Quality AQ Index Pollutant
Not available.

Snow Depth

Station Depth Elevation

Earthquake Activity

City Distance Mag. Time & Date
Minimum magnitude displayed is 2.5.

Coastal Water Temperatures

Place Temperature

Nearby Weather Stations